createdAt,value
2022-10-09T00:00:51.732Z,78.91
2022-10-09T00:03:21.962Z,79.04
2022-10-09T00:05:52.309Z,79.02
2022-10-09T00:08:22.590Z,79.02
2022-10-09T00:10:52.994Z,79.21
2022-10-09T00:13:23.238Z,79.23
2022-10-09T00:15:53.493Z,79.30
2022-10-09T00:18:23.683Z,79.13
2022-10-09T00:20:53.879Z,79.30
2022-10-09T00:23:24.137Z,79.23
2022-10-09T00:25:55.818Z,79.36
2022-10-09T00:28:28.417Z,79.26
2022-10-09T00:30:58.827Z,79.61
2022-10-09T00:33:29.130Z,79.41
2022-10-09T00:35:59.338Z,79.49
2022-10-09T00:38:30.986Z,79.57
2022-10-09T00:41:03.562Z,79.71
2022-10-09T00:43:48.380Z,79.47
2022-10-09T00:46:28.566Z,79.33
2022-10-09T00:49:06.490Z,79.50
2022-10-09T00:51:37.340Z,79.46
2022-10-09T00:54:12.727Z,79.43
2022-10-09T00:56:43.543Z,79.54
2022-10-09T00:59:15.025Z,79.37
2022-10-09T01:01:45.500Z,79.35
2022-10-09T01:04:16.021Z,79.41
2022-10-09T01:07:04.669Z,79.51
2022-10-09T01:09:42.068Z,79.40
2022-10-09T01:12:20.617Z,79.70
2022-10-09T01:14:57.956Z,79.38
2022-10-09T01:17:34.469Z,79.46
2022-10-09T01:20:24.097Z,79.42
2022-10-09T01:23:12.326Z,79.48
2022-10-09T01:25:54.798Z,79.52
2022-10-09T01:28:28.921Z,79.51
2022-10-09T01:31:02.319Z,79.40
2022-10-09T01:33:34.446Z,79.50
2022-10-09T01:36:06.113Z,79.52
2022-10-09T01:38:38.372Z,79.51
2022-10-09T01:41:10.127Z,79.55
2022-10-09T01:43:41.317Z,79.59
2022-10-09T01:46:24.193Z,79.57
2022-10-09T01:49:02.813Z,79.48
2022-10-09T01:51:41.053Z,79.59
2022-10-09T01:54:14.262Z,79.45
2022-10-09T01:56:48.901Z,79.69
2022-10-09T01:59:20.770Z,79.59
2022-10-09T02:01:52.553Z,79.53
2022-10-09T02:04:23.894Z,79.62
2022-10-09T02:06:55.262Z,79.69
2022-10-09T02:09:26.477Z,79.66
2022-10-09T02:12:03.049Z,79.60
2022-10-09T02:14:34.622Z,79.65
2022-10-09T02:17:10.958Z,79.73
2022-10-09T02:19:45.076Z,79.66
2022-10-09T02:22:19.407Z,79.63
2022-10-09T02:24:49.852Z,79.58
2022-10-09T02:27:22.328Z,79.56
2022-10-09T02:29:53.518Z,79.60
2022-10-09T02:32:23.857Z,79.64
2022-10-09T02:34:54.176Z,79.85
2022-10-09T02:37:24.458Z,79.81
2022-10-09T02:39:54.723Z,79.60
2022-10-09T02:42:25.937Z,79.46
2022-10-09T02:44:56.174Z,79.62
2022-10-09T02:47:26.420Z,79.61
2022-10-09T02:49:57.378Z,79.65
2022-10-09T02:52:27.743Z,79.62
2022-10-09T02:54:57.967Z,79.65
2022-10-09T02:57:28.197Z,79.59
2022-10-09T02:59:58.393Z,79.62
2022-10-09T03:02:28.690Z,79.62
2022-10-09T03:04:59.144Z,79.59
2022-10-09T03:07:29.362Z,79.47
2022-10-09T03:09:59.581Z,79.56
2022-10-09T03:12:29.787Z,79.55
2022-10-09T03:15:00.039Z,79.59
2022-10-09T03:17:30.336Z,79.59
2022-10-09T03:20:00.602Z,79.55
2022-10-09T03:22:30.916Z,79.55
2022-10-09T03:25:01.199Z,79.49
2022-10-09T03:27:31.765Z,79.56
2022-10-09T03:30:02.025Z,79.76
2022-10-09T03:32:32.279Z,79.83
2022-10-09T03:35:02.567Z,79.60
2022-10-09T03:37:32.835Z,79.70
2022-10-09T03:40:03.094Z,79.71
2022-10-09T03:42:33.340Z,79.73
2022-10-09T03:45:04.843Z,79.69
2022-10-09T03:47:35.102Z,79.71
2022-10-09T03:50:05.738Z,79.68
2022-10-09T03:52:37.194Z,79.76
2022-10-09T03:55:09.544Z,79.99
2022-10-09T03:57:39.792Z,79.78
2022-10-09T04:00:12.702Z,79.90
2022-10-09T04:02:43.872Z,80.04
2022-10-09T04:05:14.167Z,80.00
2022-10-09T04:07:44.747Z,80.07
2022-10-09T04:10:14.998Z,80.04
2022-10-09T04:12:45.360Z,80.01
2022-10-09T04:15:15.754Z,80.03
2022-10-09T04:17:45.976Z,80.01
2022-10-09T04:20:16.613Z,80.05
2022-10-09T04:22:47.157Z,80.12
2022-10-09T04:25:17.814Z,80.18
2022-10-09T04:27:48.026Z,80.12
2022-10-09T04:30:18.461Z,80.25
2022-10-09T04:32:49.131Z,80.28
2022-10-09T04:35:19.539Z,79.94
2022-10-09T04:37:49.766Z,79.99
2022-10-09T04:40:20.033Z,80.12
2022-10-09T04:42:50.701Z,80.20
2022-10-09T04:45:21.080Z,80.20
2022-10-09T04:47:51.284Z,80.15
2022-10-09T04:50:21.561Z,80.23
2022-10-09T04:52:51.979Z,80.31
2022-10-09T04:55:22.444Z,80.41
2022-10-09T04:57:52.666Z,80.47
2022-10-09T05:00:22.949Z,80.48
2022-10-09T05:02:53.124Z,80.52
2022-10-09T05:05:23.352Z,80.64
2022-10-09T05:07:54.600Z,80.64
2022-10-09T05:10:24.870Z,80.58
2022-10-09T05:12:55.175Z,80.62
2022-10-09T05:15:25.744Z,80.79
2022-10-09T05:17:55.980Z,80.82
2022-10-09T05:20:26.234Z,80.86
2022-10-09T05:22:56.507Z,80.77
2022-10-09T05:25:26.784Z,80.83
2022-10-09T05:27:57.037Z,80.73
2022-10-09T05:30:27.307Z,80.64
2022-10-09T05:32:57.530Z,80.68
2022-10-09T05:35:27.764Z,80.86
2022-10-09T05:37:57.973Z,80.76
2022-10-09T05:40:29.322Z,81.04
2022-10-09T05:42:59.656Z,81.02
2022-10-09T05:45:29.950Z,80.85
2022-10-09T05:48:00.213Z,81.04
2022-10-09T05:50:30.419Z,81.03
2022-10-09T05:53:00.663Z,81.14
2022-10-09T05:55:31.087Z,81.02
2022-10-09T05:58:01.391Z,81.23
2022-10-09T06:00:32.251Z,81.27
2022-10-09T06:03:02.679Z,81.18
2022-10-09T06:05:32.895Z,81.15
2022-10-09T06:08:03.155Z,81.28
2022-10-09T06:10:33.441Z,81.29
2022-10-09T06:13:03.724Z,81.09
2022-10-09T06:15:33.962Z,81.23
2022-10-09T06:18:04.249Z,81.27
2022-10-09T06:20:34.479Z,81.23
2022-10-09T06:23:04.711Z,81.36
2022-10-09T06:25:34.941Z,81.31
2022-10-09T06:28:05.273Z,81.43
2022-10-09T06:30:38.726Z,81.28
2022-10-09T06:33:09.300Z,81.44
2022-10-09T06:35:39.532Z,81.38
2022-10-09T06:38:10.123Z,81.30
2022-10-09T06:40:40.614Z,81.41
2022-10-09T06:43:10.801Z,81.40
2022-10-09T06:45:41.207Z,81.43
2022-10-09T06:48:11.490Z,81.38
2022-10-09T06:50:41.724Z,81.40
2022-10-09T06:53:12.011Z,81.40
2022-10-09T06:55:51.738Z,81.49
2022-10-09T06:58:21.970Z,81.49
2022-10-09T07:01:02.514Z,81.21
2022-10-09T07:03:32.838Z,81.19
2022-10-09T07:06:11.722Z,81.00
2022-10-09T07:08:44.251Z,80.98
2022-10-09T07:11:16.814Z,80.86
2022-10-09T07:13:48.764Z,80.60
2022-10-09T07:16:24.528Z,80.68
2022-10-09T07:18:55.095Z,80.54
2022-10-09T07:21:26.771Z,80.52
2022-10-09T07:23:57.080Z,80.48
2022-10-09T07:26:29.465Z,80.46
2022-10-09T07:29:00.115Z,80.08
2022-10-09T07:31:30.435Z,80.03
2022-10-09T07:34:01.603Z,79.97
2022-10-09T07:36:31.829Z,79.83
2022-10-09T07:39:02.468Z,79.80
2022-10-09T07:41:33.026Z,79.54
2022-10-09T07:44:03.562Z,79.52
2022-10-09T07:46:34.451Z,79.37
2022-10-09T07:49:05.331Z,79.23
2022-10-09T07:51:35.661Z,79.06
2022-10-09T07:54:06.069Z,78.82
2022-10-09T07:56:38.495Z,78.97
2022-10-09T07:59:12.982Z,78.77
2022-10-09T08:01:43.602Z,78.76
2022-10-09T08:04:13.843Z,78.45
2022-10-09T08:06:44.093Z,78.36
2022-10-09T08:09:14.348Z,78.20
2022-10-09T08:11:44.586Z,78.15
2022-10-09T08:14:19.223Z,77.98
2022-10-09T08:16:49.967Z,77.86
2022-10-09T08:19:20.201Z,77.72
2022-10-09T08:21:50.575Z,77.54
2022-10-09T08:24:20.838Z,77.39
2022-10-09T08:26:51.123Z,77.35
2022-10-09T08:29:23.811Z,77.04
2022-10-09T08:31:54.423Z,76.98
2022-10-09T08:34:24.673Z,76.83
2022-10-09T08:36:54.935Z,76.85
2022-10-09T08:39:25.186Z,76.63
2022-10-09T08:41:57.693Z,76.49
2022-10-09T08:44:30.360Z,76.46
2022-10-09T08:47:08.464Z,76.21
2022-10-09T08:49:45.994Z,76.09
2022-10-09T08:52:26.590Z,75.93
2022-10-09T08:55:00.308Z,75.89
2022-10-09T08:57:34.183Z,75.69
2022-10-09T09:00:07.474Z,75.58
2022-10-09T09:02:54.416Z,75.48
2022-10-09T09:05:36.678Z,75.26
2022-10-09T09:08:16.993Z,75.00
2022-10-09T09:10:56.254Z,74.84
2022-10-09T09:13:41.825Z,74.60
2022-10-09T09:16:19.097Z,74.44
2022-10-09T09:19:10.259Z,74.35
2022-10-09T09:21:48.536Z,74.11
2022-10-09T09:24:21.750Z,73.95
2022-10-09T09:26:56.592Z,73.52
2022-10-09T09:29:27.940Z,73.32
2022-10-09T09:32:02.130Z,73.22
2022-10-09T09:34:38.313Z,73.15
2022-10-09T09:37:11.058Z,73.18
2022-10-09T09:40:31.339Z,73.01
2022-10-09T09:42:32.123Z,72.76
2022-10-09T09:45:09.502Z,72.54
2022-10-09T09:47:44.233Z,72.44
2022-10-09T09:50:35.198Z,72.21
2022-10-09T09:53:24.294Z,72.00
2022-10-09T09:55:55.868Z,71.95
2022-10-09T09:58:33.800Z,71.87
2022-10-09T10:01:06.500Z,71.74
2022-10-09T10:03:37.384Z,71.49
2022-10-09T10:06:23.724Z,71.20
2022-10-09T10:09:05.957Z,70.87
2022-10-09T10:11:38.836Z,70.73
2022-10-09T10:14:10.022Z,70.53
2022-10-09T10:16:41.127Z,70.25
2022-10-09T10:19:24.292Z,70.16
2022-10-09T10:22:01.357Z,69.78
2022-10-09T10:24:36.930Z,69.60
2022-10-09T10:27:14.967Z,69.23
2022-10-09T10:29:48.120Z,69.06
2022-10-09T10:32:23.493Z,68.76
2022-10-09T10:34:59.189Z,68.11
2022-10-09T10:37:38.675Z,67.28
2022-10-09T10:40:18.024Z,67.07
2022-10-09T10:43:00.675Z,66.93
2022-10-09T10:45:36.004Z,66.90
2022-10-09T10:48:10.521Z,66.83
2022-10-09T10:50:47.723Z,66.61
2022-10-09T10:53:30.963Z,66.38
2022-10-09T10:56:06.818Z,66.42
2022-10-09T10:58:47.094Z,66.35
2022-10-09T11:01:30.336Z,66.13
2022-10-09T11:04:22.828Z,66.10
2022-10-09T11:07:04.152Z,65.94
2022-10-09T11:09:44.501Z,65.81
2022-10-09T11:12:43.346Z,65.42
2022-10-09T11:15:22.265Z,64.49
2022-10-09T11:18:01.658Z,64.00
2022-10-09T11:20:53.207Z,63.44
2022-10-09T11:23:34.007Z,62.96
2022-10-09T11:26:14.978Z,61.72
2022-10-09T11:28:51.617Z,62.02
2022-10-09T11:31:29.625Z,61.03
2022-10-09T11:34:05.355Z,60.43
2022-10-09T11:36:40.576Z,60.21
2022-10-09T11:39:17.997Z,60.07
2022-10-09T11:41:51.531Z,60.09
2022-10-09T11:44:42.835Z,60.18
2022-10-09T11:47:21.147Z,59.79
2022-10-09T11:50:12.547Z,60.24
2022-10-09T11:52:48.587Z,60.05
2022-10-09T11:55:24.996Z,59.92
2022-10-09T11:57:55.326Z,59.96
2022-10-09T12:00:37.212Z,60.09
2022-10-09T12:03:08.611Z,60.11
2022-10-09T12:05:43.170Z,59.94
2022-10-09T12:08:19.228Z,59.88
2022-10-09T12:10:54.317Z,59.48
2022-10-09T12:13:47.488Z,59.02
2022-10-09T12:16:40.619Z,58.67
2022-10-09T12:19:24.358Z,58.05
2022-10-09T12:22:00.759Z,58.06
2022-10-09T12:24:38.524Z,57.85
2022-10-09T12:27:09.874Z,57.26
2022-10-09T12:29:45.524Z,54.97
2022-10-09T12:32:20.042Z,55.02
2022-10-09T12:34:52.109Z,54.69
2022-10-09T12:37:31.798Z,54.25
2022-10-09T12:40:14.635Z,53.98
2022-10-09T12:42:45.744Z,53.93
2022-10-09T12:45:22.280Z,52.99
2022-10-09T12:47:53.729Z,52.01
2022-10-09T12:50:27.868Z,52.46
2022-10-09T12:53:00.572Z,51.96
2022-10-09T12:55:33.439Z,52.37
2022-10-09T12:58:07.857Z,52.24
2022-10-09T13:00:38.521Z,52.40
2022-10-09T13:03:23.164Z,51.71
2022-10-09T13:05:54.227Z,51.35
2022-10-09T13:08:29.224Z,50.98
2022-10-09T13:11:11.089Z,49.73
2022-10-09T13:13:41.908Z,49.42
2022-10-09T13:16:12.221Z,50.17
2022-10-09T13:18:42.464Z,50.15
2022-10-09T13:21:28.985Z,49.97
2022-10-09T13:24:12.015Z,49.44
2022-10-09T13:26:44.673Z,49.18
2022-10-09T13:29:15.929Z,49.26
2022-10-09T13:31:47.474Z,49.18
2022-10-09T13:34:18.926Z,48.97
2022-10-09T13:36:49.146Z,48.21
2022-10-09T13:39:19.497Z,48.39
2022-10-09T13:41:52.875Z,48.25
2022-10-09T13:44:23.077Z,48.71
2022-10-09T13:46:53.453Z,48.70
2022-10-09T13:49:23.975Z,48.63
2022-10-09T13:51:54.253Z,48.70
2022-10-09T13:54:25.085Z,48.14
2022-10-09T13:56:55.540Z,48.34
2022-10-09T13:59:27.369Z,48.19
2022-10-09T14:01:57.867Z,48.20
2022-10-09T14:04:29.273Z,48.23
2022-10-09T14:06:59.532Z,47.99
2022-10-09T14:09:29.906Z,48.11
2022-10-09T14:12:00.226Z,48.32
2022-10-09T14:14:30.605Z,48.25
2022-10-09T14:17:00.844Z,47.91
2022-10-09T14:19:31.066Z,47.97
2022-10-09T14:22:01.461Z,48.56
2022-10-09T14:24:31.695Z,49.02
2022-10-09T14:27:02.379Z,48.76
2022-10-09T14:29:32.617Z,48.88
2022-10-09T14:32:02.861Z,49.03
2022-10-09T14:34:33.297Z,48.94
2022-10-09T14:37:13.603Z,48.98
2022-10-09T14:39:49.378Z,48.95
2022-10-09T14:42:19.596Z,48.94
2022-10-09T14:44:49.842Z,49.14
2022-10-09T14:47:20.089Z,49.34
2022-10-09T14:49:50.630Z,49.17
2022-10-09T14:52:20.883Z,49.24
2022-10-09T14:54:51.122Z,49.42
2022-10-09T14:57:21.950Z,49.47
2022-10-09T14:59:52.228Z,50.19
2022-10-09T15:02:22.506Z,50.57
2022-10-09T15:04:53.037Z,50.61
2022-10-09T15:07:23.253Z,50.42
2022-10-09T15:09:54.820Z,50.38
2022-10-09T15:12:25.327Z,50.50
2022-10-09T15:14:55.627Z,50.38
2022-10-09T15:17:25.903Z,50.51
2022-10-09T15:19:56.108Z,51.81
2022-10-09T15:22:26.342Z,53.08
2022-10-09T15:24:56.698Z,53.71
2022-10-09T15:27:27.040Z,53.26
2022-10-09T15:29:57.297Z,53.59
2022-10-09T15:32:27.821Z,53.91
2022-10-09T15:34:58.107Z,54.71
2022-10-09T15:37:28.330Z,55.07
2022-10-09T15:39:58.577Z,55.46
2022-10-09T15:42:28.841Z,55.65
2022-10-09T15:44:59.098Z,56.07
2022-10-09T15:47:49.981Z,56.47
2022-10-09T15:50:19.689Z,56.88
2022-10-09T15:52:50.052Z,57.13
2022-10-09T15:55:20.520Z,57.21
2022-10-09T15:57:50.713Z,57.50
2022-10-09T16:00:20.897Z,57.64
2022-10-09T16:02:51.406Z,57.67
2022-10-09T16:05:21.943Z,57.91
2022-10-09T16:07:52.185Z,58.21
2022-10-09T16:10:22.650Z,58.47
2022-10-09T16:12:53.028Z,58.77
2022-10-09T16:15:23.970Z,58.96
2022-10-09T16:17:54.370Z,59.17
2022-10-09T16:20:25.160Z,59.35
2022-10-09T16:22:55.380Z,59.58
2022-10-09T16:25:25.708Z,59.85
2022-10-09T16:27:56.786Z,60.10
2022-10-09T16:30:27.580Z,60.26
2022-10-09T16:32:58.029Z,60.39
2022-10-09T16:35:28.615Z,60.49
2022-10-09T16:37:58.882Z,60.79
2022-10-09T16:40:49.885Z,60.97
2022-10-09T16:43:20.203Z,61.02
2022-10-09T16:45:50.463Z,61.30
2022-10-09T16:48:20.711Z,61.56
2022-10-09T16:50:50.938Z,61.69
2022-10-09T16:53:21.186Z,61.73
2022-10-09T16:55:51.409Z,61.83
2022-10-09T16:58:22.015Z,61.85
2022-10-09T17:00:52.332Z,61.83
2022-10-09T17:03:22.593Z,61.97
2022-10-09T17:05:52.807Z,62.22
2022-10-09T17:08:23.187Z,62.61
2022-10-09T17:10:53.428Z,62.92
2022-10-09T17:13:24.329Z,63.27
2022-10-09T17:15:57.037Z,63.45
2022-10-09T17:18:28.652Z,63.65
2022-10-09T17:21:01.396Z,63.80
2022-10-09T17:23:32.119Z,64.07
2022-10-09T17:26:07.478Z,64.22
2022-10-09T17:28:38.550Z,64.47
2022-10-09T17:31:14.414Z,64.55
2022-10-09T17:33:46.182Z,64.75
2022-10-09T17:36:19.153Z,65.01
2022-10-09T17:38:51.040Z,65.18
2022-10-09T17:41:23.547Z,65.21
2022-10-09T17:43:55.814Z,65.24
2022-10-09T17:46:27.583Z,65.50
2022-10-09T17:48:58.431Z,65.70
2022-10-09T17:51:30.881Z,65.80
2022-10-09T17:54:06.983Z,65.98
2022-10-09T17:56:40.226Z,66.04
2022-10-09T17:59:11.129Z,66.33
2022-10-09T18:01:41.854Z,66.42
2022-10-09T18:04:16.444Z,66.64
2022-10-09T18:06:46.878Z,66.86
2022-10-09T18:09:17.153Z,66.82
2022-10-09T18:11:47.507Z,66.99
2022-10-09T18:14:19.947Z,66.96
2022-10-09T18:16:50.189Z,67.22
2022-10-09T18:19:21.444Z,67.12
2022-10-09T18:21:52.211Z,67.17
2022-10-09T18:24:25.246Z,67.07
2022-10-09T18:26:55.763Z,67.28
2022-10-09T18:29:26.043Z,67.23
2022-10-09T18:31:56.404Z,67.26
2022-10-09T18:34:26.747Z,67.29
2022-10-09T18:36:58.517Z,67.63
2022-10-09T18:39:29.229Z,67.80
2022-10-09T18:42:02.054Z,67.69
2022-10-09T18:44:35.599Z,67.67
2022-10-09T18:47:11.729Z,67.89
2022-10-09T18:49:44.725Z,67.91
2022-10-09T18:52:16.131Z,68.07
2022-10-09T18:54:49.967Z,68.09
2022-10-09T18:57:28.910Z,68.36
2022-10-09T19:00:01.170Z,68.33
2022-10-09T19:02:31.858Z,68.30
2022-10-09T19:05:02.161Z,68.50
2022-10-09T19:07:32.439Z,68.49
2022-10-09T19:10:03.483Z,68.51
2022-10-09T19:12:33.726Z,68.72
2022-10-09T19:15:09.638Z,68.88
2022-10-09T19:17:43.876Z,68.89
2022-10-09T19:20:17.559Z,69.07
2022-10-09T19:22:48.690Z,69.10
2022-10-09T19:25:20.271Z,69.17
2022-10-09T19:27:51.145Z,69.32
2022-10-09T19:30:21.718Z,69.60
2022-10-09T19:32:55.795Z,69.59
2022-10-09T19:35:27.098Z,69.68
2022-10-09T19:37:57.408Z,69.63
2022-10-09T19:40:27.761Z,69.61
2022-10-09T19:42:57.971Z,69.72
2022-10-09T19:45:29.209Z,69.81
2022-10-09T19:48:00.260Z,69.73
2022-10-09T19:50:31.258Z,69.74
2022-10-09T19:53:03.215Z,69.85
2022-10-09T19:55:36.120Z,69.98
2022-10-09T19:58:06.744Z,70.12
2022-10-09T20:00:41.701Z,70.17
2022-10-09T20:03:19.674Z,70.25
2022-10-09T20:05:49.950Z,70.21
2022-10-09T20:08:20.175Z,70.38
2022-10-09T20:10:52.693Z,70.26
2022-10-09T20:13:22.897Z,70.16
2022-10-09T20:15:55.185Z,70.15
2022-10-09T20:18:25.418Z,70.18
2022-10-09T20:20:56.243Z,70.34
2022-10-09T20:23:26.547Z,70.54
2022-10-09T20:26:08.098Z,70.66
2022-10-09T20:28:39.671Z,70.61
2022-10-09T20:31:14.581Z,70.76
2022-10-09T20:33:50.882Z,70.53
2022-10-09T20:36:27.615Z,70.72
2022-10-09T20:38:59.205Z,70.86
2022-10-09T20:41:32.699Z,70.93
2022-10-09T20:44:04.547Z,71.07
2022-10-09T20:46:37.411Z,71.24
2022-10-09T20:49:11.267Z,71.12
2022-10-09T20:51:42.075Z,71.35
2022-10-09T20:54:17.951Z,71.38
2022-10-09T20:56:50.873Z,71.38
2022-10-09T20:59:21.121Z,71.52
2022-10-09T21:01:51.803Z,71.59
2022-10-09T21:04:22.034Z,71.54
2022-10-09T21:06:52.285Z,71.74
2022-10-09T21:09:22.545Z,71.77
2022-10-09T21:11:52.814Z,71.82
2022-10-09T21:14:23.046Z,71.86
2022-10-09T21:16:53.263Z,72.07
2022-10-09T21:19:23.579Z,71.99
2022-10-09T21:21:54.016Z,71.91
2022-10-09T21:24:24.285Z,72.09
2022-10-09T21:26:54.511Z,71.96
2022-10-09T21:29:24.812Z,72.15
2022-10-09T21:31:55.021Z,72.19
2022-10-09T21:34:25.293Z,72.27
2022-10-09T21:37:19.703Z,72.39
2022-10-09T21:39:47.618Z,72.31
2022-10-09T21:42:17.936Z,72.49
2022-10-09T21:44:48.214Z,72.66
2022-10-09T21:47:19.787Z,72.61
2022-10-09T21:49:50.051Z,72.64
2022-10-09T21:52:20.340Z,72.64
2022-10-09T21:54:50.622Z,72.79
2022-10-09T21:57:20.912Z,72.76
2022-10-09T21:59:51.198Z,72.95
2022-10-09T22:02:21.440Z,72.90
2022-10-09T22:04:52.584Z,72.95
2022-10-09T22:07:22.819Z,73.10
2022-10-09T22:09:53.810Z,73.21
2022-10-09T22:12:26.493Z,73.21
2022-10-09T22:14:58.101Z,73.34
2022-10-09T22:17:28.352Z,73.36
2022-10-09T22:19:58.583Z,73.47
2022-10-09T22:22:28.834Z,73.32
2022-10-09T22:24:59.751Z,73.62
2022-10-09T22:27:29.988Z,73.55
2022-10-09T22:30:00.289Z,73.80
2022-10-09T22:32:30.523Z,73.67
2022-10-09T22:35:00.748Z,73.85
2022-10-09T22:37:31.015Z,73.92
2022-10-09T22:40:01.319Z,74.03
2022-10-09T22:42:31.541Z,74.25
2022-10-09T22:45:06.434Z,74.10
2022-10-09T22:47:36.720Z,74.10
2022-10-09T22:50:07.523Z,74.20
2022-10-09T22:52:37.744Z,74.26
2022-10-09T22:55:09.734Z,74.23
2022-10-09T22:57:39.955Z,74.28
2022-10-09T23:00:12.183Z,74.30
2022-10-09T23:02:42.402Z,74.30
2022-10-09T23:05:13.155Z,74.45
2022-10-09T23:07:45.795Z,74.57
2022-10-09T23:10:16.299Z,74.49
2022-10-09T23:12:48.393Z,74.58
2022-10-09T23:15:19.220Z,74.65
2022-10-09T23:17:49.485Z,74.65
2022-10-09T23:20:19.761Z,74.71
2022-10-09T23:22:50.201Z,74.88
2022-10-09T23:25:20.585Z,74.92
2022-10-09T23:27:50.911Z,74.83
2022-10-09T23:30:21.249Z,74.97
2022-10-09T23:32:53.935Z,74.89
2022-10-09T23:35:24.167Z,75.25
2022-10-09T23:37:56.364Z,75.10
2022-10-09T23:40:26.588Z,75.12
2022-10-09T23:42:56.820Z,75.33
2022-10-09T23:45:27.043Z,75.35
2022-10-09T23:47:57.264Z,75.56
2022-10-09T23:50:27.500Z,75.40
2022-10-09T23:52:57.724Z,75.73
2022-10-09T23:55:27.946Z,75.79
2022-10-09T23:57:58.167Z,75.72
